Wetterdaten: Woche 03.05.10 - 09.05.10 (KW18)
Datum Zeit Temp. A. Feuchte A. Luftdruck Regen Wind Richtung Taupunkt Windchill Windben
03.05.2010 00:00 14,1 C 74 % 1005,5 hPa 0,0 l/m 0,3 km/h N 9,5 C 14,1 C 4,0 km/h
03.05.2010 01:00 13,7 C 78 % 1006,0 hPa 0,0 l/m 0,1 km/h N 10,0 C 13,7 C 2,0 km/h
03.05.2010 02:00 13,6 C 81 % 1006,1 hPa 0,0 l/m 0,1 km/h N 10,4 C 13,6 C 2,8 km/h
03.05.2010 03:00 13,3 C 80 % 1006,2 hPa 0,0 l/m 0,3 km/h N 9,9 C 13,3 C 3,2 km/h
03.05.2010 04:00 13,0 C 80 % 1006,5 hPa 0,0 l/m 0,3 km/h N 9,6 C 13,0 C 5,2 km/h
03.05.2010 05:00 12,5 C 81 % 1006,7 hPa 0,0 l/m 0,6 km/h N 9,3 C 12,5 C 5,2 km/h
03.05.2010 06:00 12,9 C 78 % 1007,2 hPa 0,0 l/m 0,6 km/h N 9,1 C 12,9 C 4,8 km/h
03.05.2010 07:00 13,1 C 79 % 1007,7 hPa 0,0 l/m 0,4 km/h N 9,4 C 13,1 C 5,2 km/h
03.05.2010 08:00 12,9 C 82 % 1008,2 hPa 0,5 l/m 0,5 km/h N 9,9 C 12,9 C 6,0 km/h
03.05.2010 09:00 13,1 C 86 % 1008,4 hPa 0,5 l/m 0,3 km/h N 10,7 C 13,1 C 3,6 km/h
03.05.2010 10:00 13,4 C 83 % 1008,8 hPa 0,0 l/m 0,7 km/h W 10,6 C 13,4 C 6,0 km/h
03.05.2010 11:00 13,5 C 80 % 1009,3 hPa 0,0 l/m 1,5 km/h W-SW 10,1 C 13,5 C 8,4 km/h
03.05.2010 12:00 13,8 C 79 % 1009,5 hPa 0,3 l/m 0,6 km/h N 10,1 C 13,8 C 5,2 km/h
03.05.2010 13:00 13,3 C 83 % 1009,5 hPa 0,8 l/m 0,2 km/h N 10,5 C 13,3 C 2,4 km/h
03.05.2010 14:00 13,6 C 83 % 1009,4 hPa 0,0 l/m 0,3 km/h N 10,8 C 13,6 C 2,0 km/h
03.05.2010 15:00 14,0 C 81 % 1009,8 hPa 0,0 l/m 1,8 km/h NW 10,7 C 14,0 C 5,2 km/h
03.05.2010 16:00 14,2 C 79 % 1009,8 hPa 0,0 l/m 1,2 km/h N-NW 10,6 C 14,2 C 6,4 km/h
03.05.2010 17:00 14,2 C 78 % 1010,0 hPa 0,0 l/m 1,8 km/h N-NW 10,4 C 14,2 C 5,6 km/h
03.05.2010 18:00 13,9 C 81 % 1010,1 hPa 0,0 l/m 0,7 km/h N 10,7 C 13,9 C 4,4 km/h
03.05.2010 19:00 13,8 C 83 % 1010,3 hPa 0,0 l/m 0,0 km/h N 10,8 C 13,8 C 0,8 km/h
03.05.2010 20:00 13,6 C 81 % 1010,8 hPa 0,0 l/m 0,1 km/h N 10,4 C 13,6 C 1,2 km/h
03.05.2010 21:00 13,2 C 83 % 1011,5 hPa 0,8 l/m 0,2 km/h N 10,4 C 13,2 C 2,4 km/h
03.05.2010 22:00 12,2 C 89 % 1011,9 hPa 1,0 l/m 0,3 km/h N 10,4 C 12,2 C 2,8 km/h
03.05.2010 23:00 12,1 C 90 % 1012,3 hPa 0,3 l/m 0,1 km/h N 10,4 C 12,1 C 1,6 km/h
04.05.2010 00:00 12,2 C 90 % 1012,5 hPa 0,0 l/m 0,1 km/h N 10,6 C 12,2 C 2,0 km/h
04.05.2010 01:00 12,4 C 90 % 1012,7 hPa 0,0 l/m 0,0 km/h N 10,7 C 12,4 C 0,4 km/h
04.05.2010 02:00 12,4 C 89 % 1012,7 hPa 0,0 l/m 0,3 km/h N 10,5 C 12,4 C 3,6 km/h
04.05.2010 03:00 12,4 C 87 % 1012,6 hPa 0,0 l/m 0,4 km/h N 10,3 C 12,4 C 3,6 km/h
04.05.2010 04:00 12,4 C 87 % 1012,6 hPa 0,0 l/m 0,3 km/h N 10,3 C 12,4 C 5,2 km/h
04.05.2010 05:00 12,4 C 87 % 1012,6 hPa 0,0 l/m 0,3 km/h N 10,2 C 12,4 C 4,0 km/h
04.05.2010 06:00 12,5 C 87 % 1012,6 hPa 0,0 l/m 0,0 km/h N 10,3 C 12,5 C 1,2 km/h
04.05.2010 07:00 12,6 C 88 % 1012,6 hPa 0,0 l/m 0,1 km/h N 10,7 C 12,6 C 1,2 km/h
04.05.2010 08:00 13,3 C 86 % 1012,8 hPa 0,0 l/m 0,1 km/h N 11,0 C 13,3 C 2,0 km/h
04.05.2010 09:00 13,8 C 84 % 1013,3 hPa 0,0 l/m 0,9 km/h W-NW 11,1 C 13,8 C 3,2 km/h
04.05.2010 10:00 14,6 C 82 % 1013,2 hPa 0,0 l/m 1,1 km/h NW 11,6 C 14,6 C 4,4 km/h
04.05.2010 11:00 15,9 C 77 % 1013,1 hPa 0,0 l/m 1,0 km/h NO 11,9 C 15,9 C 4,8 km/h
04.05.2010 12:00 16,4 C 74 % 1012,6 hPa 0,0 l/m 0,6 km/h O-NO 11,8 C 16,4 C 3,6 km/h
04.05.2010 13:00 17,1 C 73 % 1012,1 hPa 0,0 l/m 1,4 km/h O-NO 12,2 C 17,1 C 5,2 km/h
04.05.2010 14:00 18,0 C 71 % 1011,9 hPa 0,0 l/m 1,8 km/h NO 12,6 C 18,0 C 5,2 km/h
04.05.2010 15:00 17,6 C 71 % 1011,6 hPa 0,0 l/m 0,7 km/h N 12,3 C 17,6 C 3,6 km/h
04.05.2010 16:00 17,4 C 74 % 1011,5 hPa 0,0 l/m 1,6 km/h NO 12,6 C 17,4 C 5,2 km/h
04.05.2010 17:00 15,9 C 84 % 1011,7 hPa 1,0 l/m 2,0 km/h NO 13,1 C 15,9 C 4,8 km/h
04.05.2010 18:00 14,9 C 88 % 1011,4 hPa 0,8 l/m 1,3 km/h NO 12,9 C 14,9 C 4,8 km/h
04.05.2010 19:00 14,0 C 89 % 1011,3 hPa 0,3 l/m 1,2 km/h NO 12,1 C 14,0 C 5,6 km/h
04.05.2010 20:00 13,6 C 90 % 1011,3 hPa 0,5 l/m 0,6 km/h N-NO 11,9 C 13,6 C 5,2 km/h
04.05.2010 21:00 13,0 C 91 % 1011,5 hPa 0,8 l/m 0,6 km/h O-NO 11,5 C 13,0 C 4,4 km/h
04.05.2010 22:00 12,5 C 91 % 1011,4 hPa 0,0 l/m 0,6 km/h N-NW 11,1 C 12,5 C 3,2 km/h
04.05.2010 23:00 12,2 C 91 % 1011,1 hPa 0,0 l/m 0,3 km/h N 10,7 C 12,2 C 2,4 km/h
05.05.2010 00:00 12,1 C 91 % 1011,1 hPa 0,0 l/m 0,4 km/h N 10,7 C 12,1 C 4,0 km/h
05.05.2010 01:00 12,2 C 91 % 1011,1 hPa 0,0 l/m 0,0 km/h N 10,7 C 12,2 C 0,8 km/h
05.05.2010 02:00 12,2 C 91 % 1010,9 hPa 0,0 l/m 1,5 km/h NW 10,8 C 12,2 C 5,6 km/h
05.05.2010 03:00 11,4 C 91 % 1011,5 hPa 0,0 l/m 3,3 km/h N-NW 9,9 C 11,4 C 8,0 km/h
05.05.2010 04:00 10,8 C 92 % 1011,7 hPa 0,0 l/m 2,7 km/h N-NW 9,4 C 10,8 C 7,6 km/h
05.05.2010 05:00 10,4 C 91 % 1012,2 hPa 0,0 l/m 2,3 km/h N-NW 9,0 C 10,4 C 7,6 km/h
05.05.2010 06:00 10,3 C 91 % 1012,6 hPa 0,0 l/m 1,6 km/h N-NW 9,0 C 10,3 C 5,2 km/h
05.05.2010 07:00 10,1 C 92 % 1013,1 hPa 0,0 l/m 1,9 km/h N 8,9 C 10,1 C 5,2 km/h
05.05.2010 08:00 9,9 C 91 % 1013,4 hPa 0,0 l/m 3,0 km/h NO 8,6 C 9,9 C 6,4 km/h
05.05.2010 09:00 10,1 C 90 % 1013,4 hPa 0,0 l/m 3,8 km/h N-NW 8,4 C 10,1 C 9,3 km/h
05.05.2010 10:00 10,4 C 88 % 1013,4 hPa 0,0 l/m 3,8 km/h N-NW 8,4 C 10,4 C 9,3 km/h
05.05.2010 11:00 10,9 C 86 % 1013,6 hPa 0,0 l/m 2,0 km/h N-NW 8,6 C 10,9 C 4,0 km/h
05.05.2010 12:00 11,4 C 85 % 1013,2 hPa 0,0 l/m 1,4 km/h NO 9,0 C 11,4 C 4,8 km/h
05.05.2010 13:00 11,9 C 83 % 1012,7 hPa 0,0 l/m 2,3 km/h N-NW 9,1 C 11,9 C 8,0 km/h
05.05.2010 14:00 12,3 C 82 % 1012,2 hPa 0,0 l/m 2,6 km/h N-NW 9,3 C 12,3 C 8,4 km/h
05.05.2010 15:00 12,4 C 82 % 1011,6 hPa 0,0 l/m 1,0 km/h N-NW 9,5 C 12,4 C 4,8 km/h
05.05.2010 16:00 12,3 C 85 % 1011,0 hPa 0,8 l/m 0,9 km/h N-NW 9,8 C 12,3 C 4,0 km/h
05.05.2010 17:00 12,1 C 87 % 1010,3 hPa 0,3 l/m 0,9 km/h N-NW 9,9 C 12,1 C 4,4 km/h
05.05.2010 18:00 11,9 C 87 % 1009,6 hPa 0,3 l/m 0,7 km/h NO 9,9 C 11,9 C 3,6 km/h
05.05.2010 19:00 11,5 C 88 % 1008,6 hPa 0,0 l/m 1,6 km/h N 9,6 C 11,5 C 6,0 km/h
05.05.2010 20:00 11,2 C 88 % 1008,4 hPa 0,0 l/m 1,0 km/h N-NO 9,3 C 11,2 C 4,8 km/h
05.05.2010 21:00 11,0 C 88 % 1008,3 hPa 0,0 l/m 0,5 km/h N 9,1 C 11,0 C 3,6 km/h
05.05.2010 22:00 10,9 C 89 % 1007,7 hPa 0,0 l/m 0,1 km/h N 9,2 C 10,9 C 1,6 km/h
05.05.2010 23:00 10,9 C 89 % 1007,0 hPa 0,0 l/m 0,0 km/h N 9,2 C 10,9 C 0,8 km/h
06.05.2010 00:00 10,9 C 90 % 1006,1 hPa 0,0 l/m 0,0 km/h N 9,3 C 10,9 C 1,6 km/h
06.05.2010 01:00 11,0 C 90 % 1005,2 hPa 0,0 l/m 0,2 km/h N 9,4 C 11,0 C 2,8 km/h
06.05.2010 02:00 10,9 C 91 % 1004,2 hPa 0,0 l/m 0,2 km/h N 9,5 C 10,9 C 2,0 km/h
06.05.2010 03:00 11,0 C 91 % 1003,3 hPa 0,0 l/m 0,0 km/h N 9,6 C 11,0 C 0,4 km/h
06.05.2010 04:00 11,1 C 91 % 1002,3 hPa 0,0 l/m 0,0 km/h N 9,7 C 11,1 C 0,4 km/h
06.05.2010 05:00 11,2 C 92 % 1001,3 hPa 1,6 l/m 0,0 km/h N 9,9 C 11,2 C 0,8 km/h
06.05.2010 06:00 11,4 C 92 % 1000,8 hPa 2,6 l/m 0,0 km/h N 10,1 C 11,4 C 1,6 km/h
06.05.2010 07:00 11,5 C 92 % 999,8 hPa 0,5 l/m 0,0 km/h N 10,2 C 11,5 C 0,0 km/h
06.05.2010 08:00 12,1 C 93 % 1000,3 hPa 0,0 l/m 0,0 km/h N 11,0 C 12,1 C 1,2 km/h
06.05.2010 09:00 13,0 C 93 % 1000,1 hPa 0,0 l/m 0,4 km/h S 11,9 C 13,0 C 4,0 km/h
06.05.2010 10:00 14,6 C 92 % 999,6 hPa 0,0 l/m 0,9 km/h O 13,3 C 14,6 C 4,0 km/h
06.05.2010 11:00 18,6 C 71 % 998,7 hPa 0,0 l/m 3,4 km/h SO 13,1 C 18,6 C 13,7 km/h
06.05.2010 12:00 19,9 C 59 % 998,7 hPa 0,0 l/m 7,6 km/h S 11,7 C 19,4 C 26,1 km/h
06.05.2010 13:00 20,7 C 56 % 998,3 hPa 0,0 l/m 6,7 km/h O-SO 11,4 C 20,4 C 24,5 km/h
06.05.2010 14:00 21,1 C 53 % 997,9 hPa 0,0 l/m 5,7 km/h SO 11,2 C 21,1 C 20,5 km/h
06.05.2010 15:00 21,1 C 48 % 997,8 hPa 0,0 l/m 5,6 km/h S-SO 9,6 C 21,1 C 21,3 km/h
06.05.2010 16:00 21,6 C 44 % 997,7 hPa 0,0 l/m 8,0 km/h S-SO 8,8 C 21,1 C 26,5 km/h
06.05.2010 17:00 21,1 C 42 % 997,8 hPa 0,0 l/m 7,0 km/h S-SO 7,8 C 20,8 C 20,9 km/h
06.05.2010 18:00 20,4 C 43 % 998,2 hPa 0,0 l/m 6,0 km/h S 7,5 C 20,4 C 20,5 km/h
06.05.2010 19:00 18,9 C 48 % 999,1 hPa 0,0 l/m 5,3 km/h SW 7,6 C 18,8 C 18,9 km/h
06.05.2010 20:00 16,2 C 61 % 1000,1 hPa 0,0 l/m 2,1 km/h NW 8,7 C 16,2 C 8,0 km/h
06.05.2010 21:00 14,3 C 68 % 1001,2 hPa 0,0 l/m 1,5 km/h W-SW 8,4 C 14,3 C 10,5 km/h
06.05.2010 22:00 13,4 C 70 % 1001,5 hPa 0,0 l/m 1,3 km/h SW 8,0 C 13,4 C 10,5 km/h
06.05.2010 23:00 12,9 C 72 % 1001,5 hPa 0,0 l/m 0,6 km/h S-SW 7,8 C 12,9 C 6,8 km/h
07.05.2010 00:00 12,1 C 73 % 1001,8 hPa 0,0 l/m 0,7 km/h N 7,4 C 12,1 C 6,0 km/h
07.05.2010 01:00 11,9 C 73 % 1002,0 hPa 0,0 l/m 0,4 km/h N 7,2 C 11,9 C 3,2 km/h
07.05.2010 02:00 11,6 C 76 % 1002,1 hPa 0,0 l/m 0,1 km/h N 7,6 C 11,6 C 2,4 km/h
07.05.2010 03:00 11,1 C 81 % 1002,2 hPa 0,0 l/m 0,0 km/h N 8,0 C 11,1 C 0,8 km/h
07.05.2010 04:00 10,8 C 80 % 1002,3 hPa 0,0 l/m 0,1 km/h N 7,5 C 10,8 C 1,2 km/h
07.05.2010 05:00 11,3 C 78 % 1003,0 hPa 0,0 l/m 0,6 km/h W-NW 7,6 C 11,3 C 3,6 km/h
07.05.2010 06:00 11,7 C 79 % 1003,5 hPa 0,0 l/m 0,6 km/h N 8,1 C 11,7 C 3,2 km/h
07.05.2010 07:00 11,9 C 79 % 1004,0 hPa 0,0 l/m 1,3 km/h N-NW 8,3 C 11,9 C 5,2 km/h
07.05.2010 08:00 12,6 C 77 % 1004,5 hPa 0,0 l/m 3,3 km/h N-NW 8,7 C 12,6 C 9,7 km/h
07.05.2010 09:00 13,2 C 73 % 1005,0 hPa 0,0 l/m 4,4 km/h N-NW 8,4 C 13,2 C 9,7 km/h
07.05.2010 10:00 14,4 C 67 % 1005,1 hPa 0,0 l/m 3,3 km/h N-NW 8,4 C 14,4 C 9,3 km/h
07.05.2010 11:00 16,0 C 64 % 1005,1 hPa 0,0 l/m 3,5 km/h NW 9,1 C 16,0 C 10,1 km/h
07.05.2010 12:00 16,7 C 60 % 1005,2 hPa 0,0 l/m 2,4 km/h N-NO 9,0 C 16,7 C 7,6 km/h
07.05.2010 13:00 16,8 C 58 % 1005,2 hPa 0,0 l/m 1,4 km/h N-NO 8,4 C 16,8 C 4,8 km/h
07.05.2010 14:00 14,6 C 76 % 1006,0 hPa 2,1 l/m 1,2 km/h S 10,2 C 14,6 C 6,8 km/h
07.05.2010 15:00 14,7 C 78 % 1006,2 hPa 0,0 l/m 1,1 km/h O 10,8 C 14,7 C 2,8 km/h
07.05.2010 16:00 14,4 C 74 % 1006,6 hPa 0,5 l/m 1,0 km/h S-SW 9,8 C 14,4 C 5,9 km/h
07.05.2010 17:00 12,2 C 86 % 1006,9 hPa 3,9 l/m 1,6 km/h O-SO 9,8 C 12,2 C 7,0 km/h
07.05.2010 18:00 12,5 C 90 % 1006,5 hPa 0,0 l/m 0,1 km/h N 10,8 C 12,5 C 0,8 km/h
07.05.2010 19:00 13,7 C 87 % 1006,5 hPa 0,3 l/m 0,3 km/h S-SW 11,5 C 13,7 C 3,2 km/h
07.05.2010 20:00 13,0 C 87 % 1006,9 hPa 0,0 l/m 0,2 km/h N 11,0 C 13,0 C 2,8 km/h
07.05.2010 21:00 12,4 C 86 % 1007,3 hPa 0,0 l/m 0,2 km/h N 10,1 C 12,4 C 2,4 km/h
07.05.2010 22:00 12,0 C 86 % 1007,4 hPa 0,0 l/m 0,3 km/h N 9,7 C 12,0 C 4,0 km/h
07.05.2010 23:00 11,6 C 84 % 1007,6 hPa 0,0 l/m 0,4 km/h N 8,9 C 11,6 C 5,2 km/h
08.05.2010 00:00 11,5 C 82 % 1007,7 hPa 0,0 l/m 0,4 km/h N 8,5 C 11,5 C 5,2 km/h
08.05.2010 01:00 11,6 C 81 % 1008,0 hPa 0,0 l/m 0,4 km/h N 8,4 C 11,6 C 5,2 km/h
08.05.2010 02:00 11,1 C 81 % 1007,9 hPa 0,0 l/m 0,2 km/h N 7,9 C 11,1 C 3,2 km/h
08.05.2010 03:00 11,3 C 78 % 1007,8 hPa 0,0 l/m 0,5 km/h N 7,6 C 11,3 C 7,2 km/h
08.05.2010 04:00 11,0 C 78 % 1007,8 hPa 0,0 l/m 0,5 km/h N 7,3 C 11,0 C 6,0 km/h
08.05.2010 05:00 10,8 C 79 % 1007,9 hPa 0,0 l/m 0,8 km/h SW 7,2 C 10,8 C 7,6 km/h
08.05.2010 06:00 11,3 C 78 % 1008,1 hPa 0,0 l/m 0,5 km/h N 7,6 C 11,3 C 6,4 km/h
08.05.2010 07:00 11,7 C 79 % 1008,3 hPa 0,0 l/m 0,4 km/h N-NW 8,1 C 11,7 C 6,0 km/h
08.05.2010 08:00 12,2 C 79 % 1008,6 hPa 0,0 l/m 2,4 km/h N-NW 8,6 C 12,2 C 7,2 km/h
08.05.2010 09:00 13,0 C 78 % 1008,5 hPa 0,0 l/m 3,2 km/h N-NW 9,3 C 13,0 C 9,3 km/h
08.05.2010 10:00 13,6 C 77 % 1008,6 hPa 0,0 l/m 2,2 km/h O-SO 9,6 C 13,6 C 8,4 km/h
08.05.2010 11:00 13,7 C 77 % 1008,8 hPa 0,0 l/m 1,9 km/h N-NW 9,7 C 13,7 C 5,6 km/h
08.05.2010 12:00 15,0 C 73 % 1008,7 hPa 0,0 l/m 3,8 km/h NO 10,2 C 15,0 C 9,3 km/h
08.05.2010 13:00 15,9 C 71 % 1008,4 hPa 0,0 l/m 2,4 km/h N-NO 10,5 C 15,9 C 7,6 km/h
08.05.2010 14:00 16,2 C 66 % 1008,0 hPa 0,0 l/m 3,1 km/h O 9,8 C 16,2 C 8,0 km/h
08.05.2010 15:00 16,2 C 66 % 1007,8 hPa 0,0 l/m 1,0 km/h O-NO 9,8 C 16,2 C 4,8 km/h
08.05.2010 16:00 16,5 C 65 % 1007,7 hPa 0,0 l/m 2,4 km/h S 10,0 C 16,5 C 9,3 km/h
08.05.2010 17:00 16,1 C 66 % 1007,5 hPa 0,0 l/m 3,3 km/h S-SO 9,8 C 16,1 C 10,1 km/h
08.05.2010 18:00 15,8 C 68 % 1007,5 hPa 0,0 l/m 1,0 km/h SW 9,9 C 15,8 C 6,0 km/h
08.05.2010 19:00 15,3 C 71 % 1007,6 hPa 0,0 l/m 1,0 km/h SW 10,0 C 15,3 C 4,8 km/h
08.05.2010 20:00 14,5 C 75 % 1007,9 hPa 0,0 l/m 0,1 km/h N 10,1 C 14,5 C 3,2 km/h
08.05.2010 21:00 12,9 C 82 % 1008,3 hPa 0,0 l/m 0,0 km/h N 9,9 C 12,9 C 0,0 km/h
08.05.2010 22:00 12,6 C 83 % 1008,6 hPa 0,0 l/m 0,0 km/h N 9,8 C 12,6 C 0,0 km/h
08.05.2010 23:00 13,3 C 77 % 1008,7 hPa 0,0 l/m 0,6 km/h N 9,3 C 13,3 C 4,0 km/h
09.05.2010 00:00 13,1 C 78 % 1008,7 hPa 0,0 l/m 1,3 km/h NW 9,4 C 13,1 C 4,8 km/h
09.05.2010 01:00 12,9 C 79 % 1008,8 hPa 0,0 l/m 0,8 km/h N-NW 9,3 C 12,9 C 5,2 km/h
09.05.2010 02:00 12,6 C 80 % 1008,8 hPa 0,0 l/m 0,5 km/h NW 9,1 C 12,6 C 4,0 km/h
09.05.2010 03:00 12,3 C 80 % 1008,9 hPa 0,0 l/m 0,1 km/h N 9,0 C 12,3 C 2,4 km/h
09.05.2010 04:00 12,2 C 82 % 1008,8 hPa 0,0 l/m 0,1 km/h N 9,1 C 12,2 C 2,0 km/h
09.05.2010 05:00 12,2 C 80 % 1008,8 hPa 0,0 l/m 0,1 km/h N 8,8 C 12,2 C 2,8 km/h
09.05.2010 06:00 12,1 C 79 % 1009,2 hPa 0,0 l/m 1,0 km/h N-NW 8,5 C 12,1 C 3,6 km/h
09.05.2010 07:00 12,2 C 78 % 1009,3 hPa 0,0 l/m 1,4 km/h N-NW 8,5 C 12,2 C 5,2 km/h
09.05.2010 08:00 13,6 C 71 % 1009,5 hPa 0,0 l/m 4,3 km/h NW 8,5 C 13,6 C 12,1 km/h
09.05.2010 09:00 14,6 C 68 % 1009,6 hPa 0,0 l/m 5,3 km/h N-NO 8,7 C 14,7 C 15,3 km/h
09.05.2010 10:00 16,1 C 64 % 1009,2 hPa 0,0 l/m 4,6 km/h N-NW 9,3 C 16,1 C 12,9 km/h
09.05.2010 11:00 17,4 C 59 % 1008,9 hPa 0,0 l/m 4,7 km/h N-NO 9,3 C 17,4 C 11,7 km/h
09.05.2010 12:00 17,8 C 59 % 1008,9 hPa 0,0 l/m 3,8 km/h NO 9,6 C 17,8 C 10,1 km/h
09.05.2010 13:00 18,3 C 58 % 1008,8 hPa 0,0 l/m 2,5 km/h N-NW 9,9 C 18,3 C 6,8 km/h
09.05.2010 14:00 19,3 C 57 % 1008,3 hPa 0,0 l/m 2,8 km/h N-NW 10,5 C 19,3 C 8,1 km/h
09.05.2010 15:00 19,2 C 54 % 1007,8 hPa 0,0 l/m 4,0 km/h O-NO 9,7 C 19,2 C 8,4 km/h
09.05.2010 16:00 18,8 C 56 % 1007,5 hPa 0,0 l/m 3,3 km/h O 9,7 C 18,8 C 7,2 km/h
09.05.2010 17:00 18,6 C 55 % 1007,2 hPa 0,0 l/m 1,3 km/h O 9,3 C 18,6 C 4,8 km/h
09.05.2010 18:00 18,2 C 57 % 1007,0 hPa 0,0 l/m 0,5 km/h N 9,4 C 18,2 C 3,6 km/h
09.05.2010 19:00 18,0 C 60 % 1007,1 hPa 0,0 l/m 0,3 km/h N 10,0 C 18,0 C 4,0 km/h
09.05.2010 20:00 17,0 C 68 % 1007,2 hPa 0,0 l/m 0,4 km/h N 11,0 C 17,0 C 4,4 km/h
09.05.2010 21:00 14,7 C 83 % 1007,3 hPa 0,0 l/m 0,0 km/h N 11,8 C 14,7 C 0,0 km/h
09.05.2010 22:00 14,3 C 84 % 1007,0 hPa 0,0 l/m 0,1 km/h N 11,6 C 14,3 C 2,4 km/h
09.05.2010 23:00 14,0 C 82 % 1006,5 hPa 0,0 l/m 0,0 km/h N 10,9 C 14,0 C 1,2 km/h
Min-Datum _ 05.05.10 06.05.10 06.05.10 - 03.05.10 - 06.05.10 05.05.10 03.05.10
_ Min-Zeit 07:47 17:00 16:45 - 00:30 - 19:00 08:05 13:48
Minimum _ 9,9 C 41 % 997,5 hPa - 0,0 km/h - 7,0 C 9,8 C 0,0 km/h
Max-Datum _ 06.05.10 06.05.10 05.05.10 07.05.10 06.05.10 - 06.05.10 06.05.10 06.05.10
_ Max-Zeit 15:31 08:01 11:03 17:30 12:15 - 10:45 15:31 16:00
Maximum _ 22,0 C 93 % 1013,7 hPa 3,9 l/m 9,9 km/h
S
- 15,0 C 22,0 C 29,0 km/h
S
Durchschnitt _ 13,7 C 78 % 1007,7 hPa #20,3 l/m 1,4 km/h N-NW 9,8 C 13,7 C 5,7 km/h